Time;durP1;ratioP1;P1;durP2;ratioP2;P2;SDS_P1;SDS_P2;PMS_P1;PMS_P2;Temp;Humidity;BMP_temperature;BMP_pressure;BME280_temperature;BME280_humidity;BME280_pressure;Samples;Min_cycle;Max_cycle;Signal;HPM_P1;HPM_P2
2023/06/05 00:00:41;;;;;;;2.63;1.53;;;16.10;1.00;;;;;;4968735;28;21001;-70
2023/06/05 00:03:08;;;;;;;1.60;1.50;;;16.10;1.00;;;;;;4965686;28;20563;-69
2023/06/05 00:05:36;;;;;;;2.50;1.80;;;16.10;1.00;;;;;;4964984;28;20951;-70
2023/06/05 00:08:03;;;;;;;3.37;2.00;;;16.10;1.00;;;;;;4961423;28;20477;-69
2023/06/05 00:10:30;;;;;;;2.17;1.63;;;16.10;1.00;;;;;;4964496;28;20465;-68
2023/06/05 00:12:58;;;;;;;2.77;2.20;;;16.10;1.00;;;;;;4951196;28;21368;-68
2023/06/05 00:15:25;;;;;;;2.10;1.70;;;16.10;1.00;;;;;;4967227;28;20642;-69
2023/06/05 00:17:55;;;;;;;3.10;1.50;;;16.10;1.00;;;;;;4963057;28;20518;-69
2023/06/05 00:20:21;;;;;;;3.63;2.20;;;16.10;1.00;;;;;;4965109;28;20599;-68
2023/06/05 00:22:48;;;;;;;1.93;1.73;;;16.10;1.00;;;;;;4961291;28;20582;-69
2023/06/05 00:25:15;;;;;;;2.80;1.70;;;16.10;1.00;;;;;;4967582;28;20977;-69
2023/06/05 00:27:42;;;;;;;2.90;1.50;;;16.00;1.00;;;;;;4963797;28;20599;-69
2023/06/05 00:30:10;;;;;;;2.50;2.10;;;16.00;1.00;;;;;;4967192;28;20495;-69
2023/06/05 00:32:37;;;;;;;4.30;1.67;;;16.00;1.00;;;;;;4961474;28;20523;-70
2023/06/05 00:35:07;;;;;;;3.00;1.97;;;16.00;1.00;;;;;;4968972;28;20597;-69
2023/06/05 00:37:34;;;;;;;2.23;1.80;;;16.00;1.00;;;;;;4966693;28;20555;-71
2023/06/05 00:40:02;;;;;;;3.70;1.97;;;16.00;1.00;;;;;;4964539;28;20555;-74
2023/06/05 00:42:29;;;;;;;3.40;2.03;;;15.90;1.00;;;;;;4964717;28;20471;-68
2023/06/05 00:44:57;;;;;;;1.70;1.60;;;15.90;1.00;;;;;;4964451;28;20547;-71
2023/06/05 00:47:25;;;;;;;2.97;1.70;;;15.90;1.00;;;;;;4965383;28;20581;-70
2023/06/05 00:49:52;;;;;;;1.77;1.67;;;15.80;1.00;;;;;;4979650;28;20450;-68
2023/06/05 00:52:21;;;;;;;2.53;2.10;;;15.80;1.00;;;;;;4996888;28;20542;-69
2023/06/05 00:54:48;;;;;;;2.70;1.83;;;15.70;1.00;;;;;;4995977;28;20558;-70
2023/06/05 00:57:15;;;;;;;2.07;1.87;;;15.70;1.00;;;;;;4977063;28;20503;-70
2023/06/05 00:59:44;;;;;;;2.10;1.90;;;15.60;1.00;;;;;;4961097;28;20459;-69
2023/06/05 01:02:12;;;;;;;2.23;2.03;;;15.60;1.00;;;;;;4951383;28;20471;-69
2023/06/05 01:04:40;;;;;;;1.83;1.63;;;15.60;1.00;;;;;;4960450;28;20460;-70
2023/06/05 01:07:08;;;;;;;1.77;1.67;;;15.50;1.00;;;;;;4962616;28;20602;-70
2023/06/05 01:09:37;;;;;;;1.67;1.57;;;15.50;1.00;;;;;;4962742;28;20468;-69
2023/06/05 01:12:09;;;;;;;2.33;1.77;;;15.40;1.00;;;;;;4964100;28;20467;-69
2023/06/05 01:14:38;;;;;;;2.13;1.93;;;15.40;1.00;;;;;;4962671;28;20594;-70
2023/06/05 01:17:08;;;;;;;2.63;1.83;;;15.30;1.00;;;;;;4959709;28;20555;-70
2023/06/05 01:19:39;;;;;;;2.70;2.43;;;15.40;1.00;;;;;;4962175;28;20562;-71
2023/06/05 01:22:06;;;;;;;1.70;1.60;;;15.30;1.00;;;;;;4964636;28;20470;-69
2023/06/05 01:24:35;;;;;;;1.83;1.73;;;15.30;1.00;;;;;;4962931;28;20489;-69
2023/06/05 01:27:09;;;;;;;1.93;1.50;;;15.30;1.00;;;;;;4964478;28;20502;-69
2023/06/05 01:29:49;;;;;;;2.20;1.37;;;15.20;1.00;;;;;;4959563;28;20468;-70
2023/06/05 01:32:21;;;;;;;2.50;2.10;;;15.30;1.00;;;;;;4963909;28;20979;-69
2023/06/05 01:34:49;;;;;;;2.13;1.50;;;15.20;1.00;;;;;;4962249;28;20467;-68
2023/06/05 01:37:18;;;;;;;3.63;2.33;;;15.20;1.00;;;;;;4965543;28;20490;-68
2023/06/05 01:39:48;;;;;;;3.03;1.80;;;15.20;1.00;;;;;;4962801;28;20467;-69
2023/06/05 01:42:16;;;;;;;2.10;1.90;;;15.20;1.00;;;;;;4960241;28;20460;-68
2023/06/05 01:44:43;;;;;;;1.93;1.77;;;15.10;1.00;;;;;;4961643;28;20471;-69
2023/06/05 01:47:11;;;;;;;2.63;2.00;;;15.10;1.00;;;;;;4966938;28;20551;-69
2023/06/05 01:49:38;;;;;;;2.73;1.97;;;15.10;1.00;;;;;;4961060;28;20552;-69
2023/06/05 01:52:05;;;;;;;2.80;2.13;;;15.10;1.00;;;;;;4966235;28;20468;-70
2023/06/05 01:54:33;;;;;;;3.90;2.57;;;15.20;1.00;;;;;;4967188;28;20470;-69
2023/06/05 01:57:04;;;;;;;6.13;2.07;;;15.10;1.00;;;;;;4968506;28;20537;-69
2023/06/05 01:59:31;;;;;;;1.83;1.73;;;15.10;1.00;;;;;;4960265;28;20466;-69
2023/06/05 02:01:58;;;;;;;2.50;2.17;;;15.00;1.00;;;;;;4961787;28;20468;-69
2023/06/05 02:04:27;;;;;;;3.10;1.67;;;15.00;1.00;;;;;;4964456;28;20470;-73
2023/06/05 02:06:54;;;;;;;3.40;1.90;;;15.00;1.00;;;;;;4967203;28;21177;-69
2023/06/05 02:09:21;;;;;;;2.40;2.20;;;15.00;1.00;;;;;;4964414;28;20840;-70
2023/06/05 02:11:48;;;;;;;2.07;1.87;;;15.00;1.00;;;;;;4963578;28;20467;-68
2023/06/05 02:14:16;;;;;;;1.60;1.50;;;15.00;1.00;;;;;;4966436;28;20467;-69
2023/06/05 02:16:43;;;;;;;5.10;2.77;;;14.90;1.00;;;;;;4961749;28;21062;-69
2023/06/05 02:19:10;;;;;;;3.43;1.70;;;14.90;1.00;;;;;;4965835;28;20464;-70
2023/06/05 02:21:37;;;;;;;1.80;1.67;;;14.90;1.00;;;;;;4964640;28;20478;-70
2023/06/05 02:24:05;;;;;;;1.80;1.70;;;14.90;1.00;;;;;;4967007;28;20574;-70
2023/06/05 02:26:32;;;;;;;1.83;1.73;;;14.90;1.00;;;;;;4966257;28;20493;-69
2023/06/05 02:28:59;;;;;;;3.13;1.73;;;14.80;1.00;;;;;;4966203;28;20802;-67
2023/06/05 02:31:28;;;;;;;2.17;1.97;;;14.80;1.00;;;;;;4969206;28;20556;-69
2023/06/05 02:33:56;;;;;;;2.80;1.73;;;14.80;1.00;;;;;;4964696;28;21160;-69
2023/06/05 02:36:23;;;;;;;3.20;2.73;;;14.70;1.00;;;;;;4965185;28;20975;-69
2023/06/05 02:38:51;;;;;;;4.70;2.60;;;14.70;1.00;;;;;;4965818;28;20463;-68
2023/06/05 02:41:21;;;;;;;4.70;2.07;;;14.70;1.00;;;;;;4969274;28;20562;-68
2023/06/05 02:43:48;;;;;;;2.80;2.27;;;14.60;1.00;;;;;;4968835;28;20489;-69
2023/06/05 02:46:15;;;;;;;2.33;2.13;;;14.70;1.00;;;;;;4962836;28;20908;-69
2023/06/05 02:48:43;;;;;;;2.90;1.80;;;14.60;1.00;;;;;;4966463;28;20838;-69
2023/06/05 02:51:10;;;;;;;3.33;2.13;;;14.60;1.00;;;;;;4967538;28;20490;-69
2023/06/05 02:53:37;;;;;;;6.90;2.87;;;14.60;1.00;;;;;;4965853;28;20462;-71
2023/06/05 02:56:05;;;;;;;6.73;2.53;;;14.50;1.00;;;;;;4963943;28;20493;-69
2023/06/05 02:58:33;;;;;;;1.97;1.77;;;14.50;1.00;;;;;;4967413;28;20492;-69
2023/06/05 03:01:01;;;;;;;5.80;1.97;;;14.50;1.00;;;;;;4964086;28;20605;-69
2023/06/05 03:03:29;;;;;;;4.37;2.20;;;14.50;1.00;;;;;;4968121;28;20549;-73
2023/06/05 03:06:04;;;;;;;3.90;2.27;;;14.50;1.00;;;;;;4969623;28;21069;-70
2023/06/05 03:08:32;;;;;;;2.57;2.37;;;14.50;1.00;;;;;;4963319;28;20473;-69
2023/06/05 03:11:00;;;;;;;2.40;1.63;;;14.40;1.00;;;;;;4971414;28;20493;-69
2023/06/05 03:13:27;;;;;;;4.17;2.40;;;14.40;1.00;;;;;;4966732;28;20951;-69
2023/06/05 03:15:56;;;;;;;2.20;1.83;;;14.40;1.00;;;;;;4968584;28;20573;-71
2023/06/05 03:18:25;;;;;;;3.13;2.33;;;14.40;1.00;;;;;;4965002;28;20836;-69
2023/06/05 03:20:54;;;;;;;7.90;3.00;;;14.50;1.00;;;;;;4970370;28;21006;-69
2023/06/05 03:23:25;;;;;;;6.57;2.10;;;14.50;1.00;;;;;;4967457;28;20559;-69
2023/06/05 03:25:52;;;;;;;6.10;2.73;;;14.50;1.00;;;;;;4968388;28;20932;-70
2023/06/05 03:28:19;;;;;;;5.67;3.47;;;14.50;1.00;;;;;;4969121;28;20455;-70
2023/06/05 03:30:47;;;;;;;3.50;2.50;;;14.50;1.00;;;;;;4956205;28;20509;-69
2023/06/05 03:33:14;;;;;;;3.43;2.40;;;14.40;1.00;;;;;;4963671;28;20990;-69
2023/06/05 03:35:42;;;;;;;4.80;2.63;;;14.40;1.00;;;;;;4965391;28;20481;-69
2023/06/05 03:38:09;;;;;;;6.33;3.83;;;14.40;1.00;;;;;;4970106;28;20477;-71
2023/06/05 03:40:39;;;;;;;4.90;3.00;;;14.30;1.00;;;;;;4961790;28;20953;-68
2023/06/05 03:43:06;;;;;;;9.73;4.33;;;14.30;1.00;;;;;;4965514;28;20485;-69
2023/06/05 03:45:34;;;;;;;8.77;3.50;;;14.30;1.00;;;;;;4964036;28;20581;-69
2023/06/05 03:48:00;;;;;;;9.17;4.70;;;14.30;1.00;;;;;;4967148;28;20542;-69
2023/06/05 03:50:30;;;;;;;5.33;2.80;;;14.30;1.00;;;;;;4966689;28;20530;-69
2023/06/05 03:53:02;;;;;;;23.63;5.10;;;14.30;1.00;;;;;;4963425;28;20889;-69
2023/06/05 03:55:40;;;;;;;22.23;4.20;;;14.30;1.00;;;;;;4972075;28;21545;-68
2023/06/05 03:58:13;;;;;;;15.93;4.20;;;14.30;1.00;;;;;;4965878;28;20465;-68
2023/06/05 04:00:40;;;;;;;6.43;3.00;;;14.30;1.00;;;;;;4967354;28;20915;-69
2023/06/05 04:03:10;;;;;;;7.10;2.87;;;14.30;1.00;;;;;;4960228;28;20458;-68
2023/06/05 04:05:37;;;;;;;5.70;3.00;;;14.40;1.00;;;;;;4955895;28;20616;-69
2023/06/05 04:08:05;;;;;;;6.10;3.50;;;14.40;1.00;;;;;;4963755;28;20580;-68
2023/06/05 04:10:31;;;;;;;5.87;3.03;;;14.40;1.00;;;;;;4964968;28;21545;-75
2023/06/05 04:12:58;;;;;;;4.77;3.17;;;14.50;1.00;;;;;;4961079;28;20470;-80
2023/06/05 04:15:28;;;;;;;5.97;3.13;;;14.50;1.00;;;;;;4965587;28;20479;-76
2023/06/05 04:17:55;;;;;;;4.57;2.67;;;14.50;1.00;;;;;;4964638;28;20597;-76
2023/06/05 04:20:22;;;;;;;4.43;2.80;;;14.50;1.00;;;;;;4966281;28;21238;-76
2023/06/05 04:22:50;;;;;;;4.87;3.17;;;14.50;1.00;;;;;;4966933;28;21366;-77
2023/06/05 04:25:18;;;;;;;5.70;3.20;;;14.50;1.00;;;;;;4970680;28;20434;-76
2023/06/05 04:27:48;;;;;;;6.03;3.20;;;14.60;1.00;;;;;;4964176;28;20473;-74
2023/06/05 04:30:17;;;;;;;5.37;4.67;;;14.60;1.00;;;;;;4964345;28;20551;-76
2023/06/05 04:32:52;;;;;;;18.70;4.60;;;14.60;1.00;;;;;;4962425;28;20494;-75
2023/06/05 04:35:20;;;;;;;5.90;2.50;;;14.70;1.00;;;;;;4965507;28;20855;-76
2023/06/05 04:37:47;;;;;;;7.10;3.10;;;14.70;1.00;;;;;;4967902;28;20513;-76
2023/06/05 04:40:15;;;;;;;6.47;3.17;;;14.70;1.00;;;;;;4961250;28;20483;-76
2023/06/05 04:42:42;;;;;;;6.20;4.50;;;14.80;1.00;;;;;;4961077;28;20470;-76
2023/06/05 04:45:09;;;;;;;2.97;2.23;;;14.80;1.00;;;;;;4964065;28;20870;-76
2023/06/05 04:47:37;;;;;;;3.03;2.50;;;14.80;1.00;;;;;;4964836;28;20521;-76
2023/06/05 04:50:07;;;;;;;11.27;3.30;;;14.90;1.00;;;;;;4967649;28;20468;-76
2023/06/05 04:52:36;;;;;;;8.27;3.23;;;14.90;1.00;;;;;;4966474;28;20497;-72
2023/06/05 04:55:03;;;;;;;10.40;3.77;;;15.00;1.00;;;;;;4963050;28;20475;-77
2023/06/05 04:57:31;;;;;;;3.00;2.60;;;15.10;1.00;;;;;;4962856;28;20466;-76
2023/06/05 04:59:57;;;;;;;6.70;2.90;;;15.20;1.00;;;;;;4962247;28;20459;-76
2023/06/05 05:02:26;;;;;;;5.57;3.40;;;15.30;1.00;;;;;;4966870;28;20471;-76
2023/06/05 05:04:53;;;;;;;7.87;2.93;;;15.30;1.00;;;;;;4969511;28;20442;-76
2023/06/05 05:07:22;;;;;;;5.50;2.70;;;15.40;1.00;;;;;;4969538;28;20432;-76
2023/06/05 05:09:50;;;;;;;7.30;2.87;;;15.50;1.00;;;;;;4965880;28;20470;-77
2023/06/05 05:12:17;;;;;;;8.43;3.13;;;15.60;1.00;;;;;;4967530;28;20462;-77
2023/06/05 05:14:45;;;;;;;3.67;2.17;;;15.60;1.00;;;;;;4963355;28;20581;-75
2023/06/05 05:17:14;;;;;;;5.33;2.47;;;15.70;1.00;;;;;;4960367;28;20461;-76
2023/06/05 05:19:41;;;;;;;10.03;3.60;;;15.80;1.00;;;;;;4961374;28;20469;-76
2023/06/05 05:22:09;;;;;;;4.97;3.23;;;16.00;1.00;;;;;;4962089;28;20539;-76
2023/06/05 05:24:38;;;;;;;7.50;3.20;;;16.10;1.00;;;;;;4964324;28;20467;-75
2023/06/05 05:27:05;;;;;;;6.93;2.43;;;16.10;1.00;;;;;;4963878;28;20460;-77
2023/06/05 05:29:33;;;;;;;3.77;3.13;;;16.20;1.00;;;;;;4966526;28;20917;-79
2023/06/05 05:32:00;;;;;;;3.17;2.60;;;16.30;1.00;;;;;;4965497;28;20555;-77
2023/06/05 05:34:27;;;;;;;3.80;2.47;;;16.40;1.00;;;;;;4963623;28;20494;-77
2023/06/05 05:36:54;;;;;;;6.40;3.10;;;16.50;1.00;;;;;;4963718;28;20485;-77
2023/06/05 05:39:21;;;;;;;9.70;8.70;;;16.70;1.00;;;;;;4961558;28;21549;-76
2023/06/05 05:41:49;;;;;;;4.10;2.93;;;16.70;1.00;;;;;;4963776;28;20480;-74
2023/06/05 05:44:16;;;;;;;4.30;3.33;;;16.80;1.00;;;;;;4966711;28;20502;-76
2023/06/05 05:46:47;;;;;;;4.70;2.73;;;17.00;1.00;;;;;;4965549;28;20453;-78
2023/06/05 05:49:14;;;;;;;5.70;2.97;;;17.00;1.00;;;;;;4972016;28;21287;-77
2023/06/05 05:51:41;;;;;;;5.20;3.10;;;17.10;1.00;;;;;;4968485;28;20487;-78
2023/06/05 05:54:08;;;;;;;4.80;3.20;;;17.30;1.00;;;;;;4964100;28;20598;-78
2023/06/05 05:56:36;;;;;;;5.70;3.00;;;17.40;1.00;;;;;;4963168;28;20538;-78
2023/06/05 05:59:05;;;;;;;3.17;2.87;;;17.60;1.00;;;;;;4964208;28;20465;-78
2023/06/05 06:01:32;;;;;;;7.87;3.40;;;17.70;1.00;;;;;;4964469;28;20984;-77
2023/06/05 06:03:59;;;;;;;4.90;3.20;;;17.90;1.00;;;;;;4973153;28;20467;-78
2023/06/05 06:06:27;;;;;;;4.23;3.20;;;18.00;1.00;;;;;;4971304;28;20459;-79
2023/06/05 06:08:54;;;;;;;6.30;2.63;;;18.10;1.00;;;;;;4966429;28;20484;-77
2023/06/05 06:11:21;;;;;;;7.10;3.13;;;18.10;1.00;;;;;;4968150;28;20604;-76
2023/06/05 06:13:48;;;;;;;5.53;4.40;;;18.20;1.00;;;;;;4971082;28;20488;-77
2023/06/05 06:16:17;;;;;;;3.47;2.77;;;18.30;1.00;;;;;;4964124;28;20512;-76
2023/06/05 06:18:44;;;;;;;3.67;2.47;;;18.40;1.00;;;;;;4970498;28;20491;-80
2023/06/05 06:21:11;;;;;;;7.03;2.57;;;18.50;1.00;;;;;;4972746;28;20466;-76
2023/06/05 06:23:38;;;;;;;9.30;3.30;;;18.60;1.00;;;;;;4965609;28;20481;-77
2023/06/05 06:26:06;;;;;;;5.70;3.10;;;18.70;1.00;;;;;;4971181;28;20449;-78
2023/06/05 06:28:33;;;;;;;5.43;2.73;;;18.80;1.00;;;;;;4972160;28;20462;-78
2023/06/05 06:31:00;;;;;;;5.77;3.20;;;18.90;1.00;;;;;;4972468;28;20550;-80
2023/06/05 06:33:29;;;;;;;4.20;3.80;;;19.00;1.00;;;;;;4967274;28;20490;-77
2023/06/05 06:35:58;;;;;;;4.60;3.20;;;19.10;1.00;;;;;;4964146;28;20431;-77
2023/06/05 06:38:27;;;;;;;4.03;3.37;;;19.20;1.00;;;;;;4959485;28;20522;-77
2023/06/05 06:40:54;;;;;;;3.10;2.70;;;19.40;1.00;;;;;;4966323;28;20510;-77
2023/06/05 06:43:21;;;;;;;5.20;3.17;;;19.40;1.00;;;;;;4966689;28;20473;-77
2023/06/05 06:45:49;;;;;;;7.77;4.10;;;19.50;1.00;;;;;;4965859;28;20525;-76
2023/06/05 06:48:18;;;;;;;4.60;3.40;;;19.60;1.00;;;;;;4957547;28;20517;-77
2023/06/05 06:50:47;;;;;;;4.00;3.10;;;19.80;1.00;;;;;;4945520;28;21000;-76
2023/06/05 06:53:13;;;;;;;8.53;4.10;;;19.90;1.00;;;;;;4966900;28;20791;-79
2023/06/05 06:55:41;;;;;;;4.67;2.90;;;20.00;1.00;;;;;;4962609;28;20998;-77
2023/06/05 06:58:09;;;;;;;6.43;2.50;;;20.10;1.00;;;;;;4964776;28;20443;-77
2023/06/05 07:00:36;;;;;;;3.83;2.27;;;20.20;1.00;;;;;;4963577;28;20532;-77
2023/06/05 07:03:03;;;;;;;3.60;2.67;;;20.30;1.00;;;;;;4960071;28;20492;-77
2023/06/05 07:05:31;;;;;;;3.30;2.30;;;20.30;1.00;;;;;;4964986;28;20495;-82
2023/06/05 07:08:00;;;;;;;48.17;39.57;;;20.50;1.00;;;;;;4965454;28;20475;-76
2023/06/05 07:10:29;;;;;;;3.97;2.57;;;20.50;1.00;;;;;;5280499;23;20483;-78
2023/06/05 07:12:56;;;;;;;6.93;3.67;;;20.60;1.00;;;;;;4965131;28;20467;-79
2023/06/05 07:15:24;;;;;;;4.87;2.10;;;20.60;1.00;;;;;;4958535;28;20474;-80
2023/06/05 07:17:54;;;;;;;6.47;2.10;;;20.70;1.00;;;;;;4963060;28;20464;-80
2023/06/05 07:20:21;;;;;;;5.70;3.40;;;20.70;1.00;;;;;;4968600;28;20471;-81
2023/06/05 07:22:48;;;;;;;7.00;3.30;;;20.80;1.00;;;;;;4966131;28;20476;-82
2023/06/05 07:25:22;;;;;;;7.40;2.30;;;21.00;1.00;;;;;;4962386;28;20461;-84
2023/06/05 07:27:50;;;;;;;4.70;2.80;;;21.20;1.00;;;;;;4972073;28;20555;-82
2023/06/05 07:30:19;;;;;;;3.50;2.27;;;21.30;1.00;;;;;;4970421;28;20469;-81
2023/06/05 07:32:46;;;;;;;3.47;2.23;;;21.50;1.00;;;;;;4967846;28;20557;-82
2023/06/05 07:35:21;;;;;;;5.10;4.10;;;21.60;1.00;;;;;;4973185;28;21015;-80
2023/06/05 07:37:48;;;;;;;7.07;4.60;;;21.80;1.00;;;;;;4972645;28;20485;-80
2023/06/05 07:40:16;;;;;;;10.23;3.70;;;21.90;1.00;;;;;;4971835;28;20823;-81
2023/06/05 07:42:47;;;;;;;4.10;2.50;;;22.00;1.00;;;;;;4971664;28;20574;-83
2023/06/05 07:45:14;;;;;;;27.13;10.67;;;22.20;1.00;;;;;;4969396;28;20624;-81
2023/06/05 07:47:45;;;;;;;7.17;3.53;;;22.40;1.00;;;;;;4964989;28;20428;-83
2023/06/05 07:50:12;;;;;;;14.83;3.83;;;22.50;1.00;;;;;;4962754;28;20458;-81
2023/06/05 07:52:40;;;;;;;22.37;8.93;;;22.70;1.00;;;;;;4968854;28;20475;-79
2023/06/05 07:55:08;;;;;;;6.80;4.03;;;22.80;1.00;;;;;;4968256;28;20520;-79
2023/06/05 07:57:36;;;;;;;6.80;2.13;;;22.90;1.00;;;;;;4958217;28;20944;-78
2023/06/05 08:00:10;;;;;;;17.17;6.47;;;23.00;1.00;;;;;;4973349;28;20608;-80
2023/06/05 08:02:38;;;;;;;5.80;2.80;;;23.00;1.00;;;;;;4963063;28;20583;-78
2023/06/05 08:05:07;;;;;;;11.60;4.80;;;23.20;1.00;;;;;;4965660;28;20457;-79
2023/06/05 08:07:36;;;;;;;5.90;2.70;;;23.20;1.00;;;;;;4952737;28;20557;-81
2023/06/05 08:10:04;;;;;;;4.30;3.17;;;23.40;1.00;;;;;;4967551;28;20425;-81
2023/06/05 08:12:31;;;;;;;3.87;2.40;;;23.50;1.00;;;;;;4955068;28;20477;-79
2023/06/05 08:14:58;;;;;;;1.80;1.70;;;23.50;1.00;;;;;;4965697;28;20454;-78
2023/06/05 08:17:28;;;;;;;6.43;3.27;;;23.70;1.00;;;;;;4967522;28;20477;-79
2023/06/05 08:19:55;;;;;;;4.70;2.70;;;23.80;1.00;;;;;;4967218;28;20474;-80
2023/06/05 08:22:23;;;;;;;6.07;2.50;;;23.80;1.00;;;;;;4966027;28;21005;-78
2023/06/05 08:24:53;;;;;;;4.47;2.37;;;23.90;1.00;;;;;;4966991;28;20457;-79
2023/06/05 08:27:20;;;;;;;8.00;3.23;;;24.00;1.00;;;;;;4968698;28;21311;-77
2023/06/05 08:29:51;;;;;;;3.80;2.10;;;24.20;1.00;;;;;;4968035;28;20469;-79
2023/06/05 08:32:20;;;;;;;3.63;1.80;;;24.10;1.00;;;;;;4963699;28;21448;-78
2023/06/05 08:34:49;;;;;;;9.97;3.50;;;24.20;1.00;;;;;;4973759;28;20513;-80
2023/06/05 08:37:16;;;;;;;3.87;2.33;;;24.30;1.00;;;;;;4974344;28;20507;-78
2023/06/05 08:39:44;;;;;;;5.47;3.20;;;24.20;1.00;;;;;;4971391;28;20479;-81
2023/06/05 08:42:18;;;;;;;2.60;2.17;;;24.30;1.00;;;;;;4973301;28;20526;-81
2023/06/05 08:44:48;;;;;;;8.07;2.90;;;24.30;1.00;;;;;;4971271;28;20548;-80
2023/06/05 08:47:17;;;;;;;5.73;2.67;;;24.50;1.00;;;;;;4976704;28;20549;-81
2023/06/05 08:49:44;;;;;;;3.00;2.77;;;24.70;1.00;;;;;;4975907;28;20556;-81
2023/06/05 08:52:16;;;;;;;3.60;2.57;;;24.80;1.00;;;;;;4971800;28;20470;-82
2023/06/05 08:54:43;;;;;;;4.00;2.60;;;25.00;1.00;;;;;;4982595;28;20483;-87
2023/06/05 08:57:12;;;;;;;4.73;2.10;;;25.10;1.00;;;;;;4974304;28;20908;-87
2023/06/05 08:59:45;;;;;;;2.90;2.30;;;25.20;1.00;;;;;;4974441;28;20476;-85
2023/06/05 09:02:12;;;;;;;4.27;2.23;;;25.20;1.00;;;;;;4972828;28;20477;-82
2023/06/05 09:04:40;;;;;;;5.97;2.73;;;25.30;1.00;;;;;;4972059;28;20439;-80
2023/06/05 09:07:11;;;;;;;2.93;1.87;;;25.30;1.00;;;;;;4979530;28;20417;-82
2023/06/05 09:09:40;;;;;;;6.13;2.80;;;25.40;1.00;;;;;;4973441;28;20677;-87
2023/06/05 09:12:08;;;;;;;3.00;2.37;;;25.50;1.00;;;;;;4975903;28;20467;-85
2023/06/05 09:14:36;;;;;;;4.23;2.53;;;25.60;1.00;;;;;;4979612;28;20452;-90
2023/06/05 09:17:06;;;;;;;5.13;1.93;;;25.80;1.00;;;;;;4969390;28;20473;-83
2023/06/05 09:19:40;;;;;;;3.87;2.23;;;25.90;1.00;;;;;;4981293;28;21242;-84
2023/06/05 09:22:08;;;;;;;5.90;2.73;;;25.70;1.00;;;;;;4961298;28;20552;-84
2023/06/05 09:24:36;;;;;;;3.27;1.90;;;25.70;1.00;;;;;;4980319;28;20428;-84
2023/06/05 09:27:08;;;;;;;3.17;2.87;;;25.90;1.00;;;;;;4977650;28;20452;-84
2023/06/05 09:29:36;;;;;;;2.93;2.07;;;26.20;1.00;;;;;;4981092;28;20869;-84
2023/06/05 09:32:09;;;;;;;5.77;2.50;;;26.40;1.00;;;;;;4978927;28;20477;-87
2023/06/05 09:34:40;;;;;;;3.40;2.43;;;26.60;1.00;;;;;;4974952;28;21247;-82
2023/06/05 09:37:13;;;;;;;13.07;4.37;;;26.90;1.00;;;;;;4965138;28;20903;-83
2023/06/05 09:39:46;;;;;;;6.33;2.43;;;28.00;1.00;;;;;;4974597;28;21104;-86
2023/06/05 09:42:16;;;;;;;3.60;2.27;;;29.60;1.00;;;;;;4974820;28;20561;-82
2023/06/05 09:45:00;;;;;;;3.93;2.50;;;30.90;1.00;;;;;;4976141;28;20450;-83
2023/06/05 09:47:28;;;;;;;2.87;1.80;;;32.10;1.00;;;;;;4972511;28;20521;-83
2023/06/05 09:49:58;;;;;;;4.53;2.70;;;32.90;1.00;;;;;;4980521;28;20432;-85
2023/06/05 09:52:25;;;;;;;2.83;2.10;;;33.40;1.00;;;;;;4967610;28;20511;-83
2023/06/05 09:55:00;;;;;;;4.77;2.23;;;33.60;1.00;;;;;;4967518;28;21034;-79
2023/06/05 09:57:33;;;;;;;2.50;2.30;;;33.90;1.00;;;;;;4979590;28;20555;-83
2023/06/05 10:00:06;;;;;;;2.13;1.87;;;33.90;1.00;;;;;;4974943;28;20978;-79
2023/06/05 10:02:38;;;;;;;4.60;2.23;;;33.90;1.00;;;;;;4965926;28;20495;-82
2023/06/05 10:05:13;;;;;;;2.80;1.67;;;34.30;1.00;;;;;;4970187;28;20451;-82
2023/06/05 10:07:42;;;;;;;3.33;2.20;;;33.50;1.00;;;;;;4969291;28;20463;-83
2023/06/05 10:10:12;;;;;;;6.73;3.80;;;33.20;1.00;;;;;;4971617;28;20468;-82
2023/06/05 10:12:42;;;;;;;4.63;2.33;;;33.80;1.00;;;;;;4971333;28;20931;-80
2023/06/05 10:15:12;;;;;;;4.60;2.53;;;33.80;1.00;;;;;;4970579;28;20852;-82
2023/06/05 10:17:41;;;;;;;2.20;2.00;;;33.50;1.00;;;;;;4967153;28;20479;-82
2023/06/05 10:20:13;;;;;;;1.87;1.50;;;33.50;1.00;;;;;;4969301;28;20936;-82
2023/06/05 10:22:44;;;;;;;5.40;2.17;;;34.40;1.00;;;;;;4962235;28;20999;-83
2023/06/05 10:25:34;;;;;;;2.60;1.80;;;35.30;1.00;;;;;;4950396;28;20467;-82
2023/06/05 10:28:25;;;;;;;4.00;2.37;;;35.50;1.00;;;;;;4966252;28;20603;-82
2023/06/05 10:31:13;;;;;;;4.13;2.90;;;35.20;1.00;;;;;;4952339;28;22002;-83
2023/06/05 10:33:54;;;;;;;2.13;2.03;;;35.00;1.00;;;;;;4965720;28;20476;-83
2023/06/05 10:36:40;;;;;;;2.77;2.57;;;35.40;1.00;;;;;;4978891;28;20451;-81
2023/06/05 10:39:12;;;;;;;2.30;2.10;;;35.40;1.00;;;;;;4966842;28;20440;-82
2023/06/05 10:41:39;;;;;;;5.47;2.67;;;35.90;1.00;;;;;;4969645;28;20455;-82
2023/06/05 10:44:12;;;;;;;3.07;2.70;;;35.80;1.00;;;;;;4971143;28;20468;-81
2023/06/05 10:46:44;;;;;;;2.57;2.37;;;35.90;1.00;;;;;;4973238;28;20494;-82
2023/06/05 10:49:15;;;;;;;3.57;2.87;;;36.00;1.00;;;;;;4968572;28;20598;-82
2023/06/05 10:51:44;;;;;;;3.30;1.80;;;36.20;1.00;;;;;;4970543;28;20452;-82
2023/06/05 10:54:21;;;;;;;2.17;1.97;;;36.20;1.00;;;;;;4970785;28;21002;-82
2023/06/05 10:56:59;;;;;;;2.20;2.00;;;36.40;1.00;;;;;;4967363;28;20683;-82
2023/06/05 10:59:32;;;;;;;3.10;2.30;;;36.40;1.00;;;;;;4973717;28;20472;-82
2023/06/05 11:02:27;;;;;;;3.70;2.10;;;36.90;1.00;;;;;;4946047;28;20534;-81
2023/06/05 11:06:03;;;;;;;3.93;2.43;;;37.60;1.00;;;;;;4956906;28;20492;-81
2023/06/05 11:12:49;;;;;;;3.07;2.60;;;38.30;1.00;;;;;;4828502;29;20908;-83
2023/06/05 11:15:45;;;;;;;3.50;3.10;;;37.90;1.00;;;;;;4825190;29;20487;-80
2023/06/05 11:32:58;;;;;;;4.13;3.83;;;38.90;1.00;;;;;;4825497;29;20459;-87
2023/06/05 11:35:48;;;;;;;3.27;2.30;;;39.10;1.00;;;;;;4938152;28;21024;-81
2023/06/05 11:41:27;;;;;;;2.57;2.37;;;39.60;1.00;;;;;;4969570;28;20471;-80
2023/06/05 11:43:56;;;;;;;5.73;2.73;;;40.30;1.00;;;;;;4975186;28;20491;-82
2023/06/05 11:46:41;;;;;;;4.37;2.70;;;40.90;1.00;;;;;;4955514;28;21021;-82
2023/06/05 11:49:32;;;;;;;3.30;2.70;;;40.40;1.00;;;;;;4973875;28;20922;-81
2023/06/05 11:52:14;;;;;;;2.90;2.70;;;40.70;1.00;;;;;;4968845;28;20462;-84
2023/06/05 11:54:52;;;;;;;6.87;3.70;;;40.70;1.00;;;;;;4965200;28;20443;-84
2023/06/05 11:57:28;;;;;;;3.03;2.30;;;41.30;1.00;;;;;;4972009;28;20514;-84
2023/06/05 12:03:01;;;;;;;6.27;3.80;;;41.10;1.00;;;;;;4951902;28;20467;-88
2023/06/05 12:05:40;;;;;;;2.50;2.30;;;41.10;1.00;;;;;;4978485;28;20918;-86
2023/06/05 12:12:07;;;;;;;5.13;2.93;;;41.70;1.00;;;;;;4947610;28;20465;-84
2023/06/05 12:14:39;;;;;;;3.20;2.90;;;41.30;1.00;;;;;;4952550;28;20563;-82
2023/06/05 12:17:22;;;;;;;4.80;3.13;;;41.30;1.00;;;;;;4959581;28;20524;-85
2023/06/05 12:20:00;;;;;;;3.20;2.90;;;41.60;1.00;;;;;;4976149;28;21073;-85
2023/06/05 12:22:29;;;;;;;3.47;2.60;;;41.80;1.00;;;;;;4960490;28;20766;-81
2023/06/05 12:28:21;;;;;;;3.00;2.73;;;41.50;1.00;;;;;;4959276;28;20972;-85
2023/06/05 12:30:55;;;;;;;2.70;2.50;;;40.80;1.00;;;;;;4971989;28;20426;-83
2023/06/05 12:33:24;;;;;;;4.60;3.00;;;40.90;1.00;;;;;;4971966;28;20442;-83
2023/06/05 12:36:04;;;;;;;3.47;2.73;;;40.40;1.00;;;;;;4968293;28;20941;-85
2023/06/05 12:38:33;;;;;;;2.83;2.30;;;40.20;1.00;;;;;;4974971;28;20504;-84
2023/06/05 12:41:01;;;;;;;3.30;3.00;;;40.40;1.00;;;;;;4968346;28;20463;-79
2023/06/05 12:43:34;;;;;;;4.00;2.73;;;40.80;1.00;;;;;;4967038;28;20625;-80
2023/06/05 12:46:03;;;;;;;5.33;3.23;;;41.30;1.00;;;;;;4965132;28;20476;-81
2023/06/05 12:48:31;;;;;;;5.03;3.00;;;41.70;1.00;;;;;;4967364;28;20517;-82
2023/06/05 12:51:02;;;;;;;2.93;2.67;;;41.70;1.00;;;;;;4966356;28;20535;-81
2023/06/05 12:53:31;;;;;;;2.90;2.70;;;42.20;1.00;;;;;;4962642;28;20465;-86
2023/06/05 12:55:59;;;;;;;2.93;2.73;;;42.40;1.00;;;;;;4969118;28;20484;-82
2023/06/05 12:58:27;;;;;;;6.77;3.47;;;42.30;1.00;;;;;;4969315;28;20466;-83
2023/06/05 13:00:54;;;;;;;6.10;2.63;;;42.00;1.00;;;;;;4973176;28;20492;-83
2023/06/05 13:03:25;;;;;;;16.97;15.60;;;40.90;1.00;;;;;;4973352;28;20492;-84
2023/06/05 13:06:03;;;;;;;3.40;3.10;;;40.60;1.00;;;;;;4972919;28;20464;-87
2023/06/05 13:08:31;;;;;;;3.27;2.97;;;40.60;1.00;;;;;;4967658;28;20470;-83
2023/06/05 13:10:58;;;;;;;2.97;2.73;;;40.70;1.00;;;;;;4975592;28;20472;-83
2023/06/05 13:13:28;;;;;;;3.67;3.00;;;40.80;1.00;;;;;;4963516;28;20491;-82
2023/06/05 13:15:58;;;;;;;2.93;2.63;;;40.80;1.00;;;;;;4973053;28;20469;-86
2023/06/05 13:18:26;;;;;;;2.43;2.23;;;40.80;1.00;;;;;;4965737;28;20510;-83
2023/06/05 13:20:53;;;;;;;5.50;4.00;;;40.70;1.00;;;;;;4988533;28;21074;-83
2023/06/05 13:23:26;;;;;;;6.00;3.40;;;41.00;1.00;;;;;;4969779;28;20460;-85
2023/06/05 13:26:08;;;;;;;;;;;;;;;;;;;;;
2023/06/05 13:28:47;;;;;;;4.03;2.90;;;41.30;1.00;;;;;;4959527;28;50849;-83
2023/06/05 13:31:15;;;;;;;5.17;3.30;;;41.50;1.00;;;;;;4968472;28;20947;-82
2023/06/05 13:33:46;;;;;;;4.17;3.10;;;41.50;1.00;;;;;;4967581;28;20476;-87
2023/06/05 13:36:13;;;;;;;4.13;2.67;;;41.50;1.00;;;;;;4976501;28;20464;-88
2023/06/05 13:38:42;;;;;;;2.60;2.40;;;41.90;1.00;;;;;;4971697;28;20451;-84
2023/06/05 13:43:58;;;;;;;3.47;3.17;;;41.20;1.00;;;;;;4965301;28;20498;-85
2023/06/05 13:46:26;;;;;;;3.37;2.60;;;41.40;1.00;;;;;;4959269;28;20468;-87